Time;durP1;ratioP1;P1;durP2;ratioP2;P2;SDS_P1;SDS_P2;PMS_P1;PMS_P2;Temp;Humidity;BMP_temperature;BMP_pressure;BME280_temperature;BME280_humidity;BME280_pressure;Samples;Min_cycle;Max_cycle;Signal;HPM_P1;HPM_P2
2021/10/29 02:35:37;;;;;;;8.45;3.80;;;;;;;16.57;78.68;98413.44;5851010;22;20182;-96
2021/10/29 02:38:03;;;;;;;9.45;3.83;;;;;;;16.64;79.22;98393.91;5033132;28;20030;-94
2021/10/29 02:40:29;;;;;;;12.65;3.95;;;;;;;16.87;77.91;98423.91;5012606;28;20044;-94
2021/10/29 02:42:54;;;;;;;6.43;3.17;;;;;;;16.49;79.96;98417.06;4999833;28;20384;-95
2021/10/29 02:45:20;;;;;;;11.40;4.15;;;;;;;16.60;79.34;98402.44;4991882;28;20134;-94
2021/10/29 02:47:48;;;;;;;9.07;3.83;;;;;;;16.76;78.50;98411.94;4992687;28;20030;-93
2021/10/29 02:50:17;;;;;;;13.18;3.80;;;;;;;16.51;80.07;98409.72;4993173;28;20031;-95
2021/10/29 02:52:43;;;;;;;13.63;4.28;;;;;;;16.68;79.17;98401.50;4992118;28;20022;-93
2021/10/29 02:55:09;;;;;;;18.45;5.60;;;;;;;16.60;80.02;98387.38;4988191;28;20034;-94
2021/10/29 02:57:36;;;;;;;17.55;4.60;;;;;;;17.13;78.02;98396.72;4996228;28;20022;-94
2021/10/29 03:00:07;;;;;;;14.60;4.38;;;;;;;16.57;80.59;98387.78;4996060;28;20061;-94
2021/10/29 03:02:34;;;;;;;12.68;4.00;;;;;;;16.85;78.46;98381.69;4995632;28;20079;-92
2021/10/29 03:05:00;;;;;;;13.27;4.07;;;;;;;17.15;77.25;98389.38;5012010;28;20073;-94
2021/10/29 03:07:25;;;;;;;13.25;4.47;;;;;;;16.55;79.95;98381.84;4979087;28;20069;-93
2021/10/29 03:09:52;;;;;;;16.45;4.28;;;;;;;16.59;79.61;98377.78;4992201;28;20109;-94
2021/10/29 03:12:17;;;;;;;10.35;4.55;;;;;;;16.68;80.19;98380.28;4997321;28;20034;-94
2021/10/29 03:14:43;;;;;;;16.10;4.88;;;;;;;16.71;79.49;98364.03;4997194;28;20029;-94
2021/10/29 03:17:08;;;;;;;13.55;4.63;;;;;;;16.05;83.36;98358.00;4999880;28;20022;-92
2021/10/29 03:19:34;;;;;;;16.02;4.75;;;;;;;16.88;79.17;98357.41;4997511;28;20026;-93
2021/10/29 03:21:59;;;;;;;11.95;4.80;;;;;;;16.89;78.77;98359.06;5000476;28;20033;-92
2021/10/29 03:24:24;;;;;;;15.02;4.75;;;;;;;17.14;77.50;98343.50;4996934;28;20538;-92
2021/10/29 03:26:50;;;;;;;15.23;4.15;;;;;;;16.74;78.92;98356.47;5001674;28;20034;-92
2021/10/29 03:29:15;;;;;;;16.98;5.43;;;;;;;16.65;79.55;98352.38;4997561;28;20033;-91
2021/10/29 03:31:41;;;;;;;19.42;4.95;;;;;;;16.43;81.06;98351.59;5001599;28;20026;-92
2021/10/29 03:34:06;;;;;;;14.27;4.75;;;;;;;16.46;80.64;98367.09;5002069;28;20106;-90
2021/10/29 03:36:31;;;;;;;17.33;4.35;;;;;;;16.95;78.34;98331.78;5000371;28;20049;-92
2021/10/29 03:39:02;;;;;;;12.95;4.78;;;;;;;16.86;79.15;98338.22;4998982;28;20094;-90
2021/10/29 03:41:31;;;;;;;14.40;5.05;;;;;;;16.81;78.31;98340.63;4999413;28;20022;-92
2021/10/29 03:46:25;;;;;;;12.60;4.40;;;;;;;16.66;79.15;98328.31;5000874;28;20072;-93
2021/10/29 03:49:43;;;;;;;12.73;4.75;;;;;;;17.14;77.39;98326.75;4998249;28;20085;-91
2021/10/29 03:51:41;;;;;;;18.58;6.13;;;;;;;16.69;78.76;98332.41;4992774;28;20389;-92
2021/10/29 03:54:16;;;;;;;20.20;4.68;;;;;;;17.00;77.57;98326.72;4994716;28;20041;-93
2021/10/29 03:56:45;;;;;;;15.18;4.85;;;;;;;16.97;78.15;98328.94;4993540;28;20532;-93
2021/10/29 03:59:12;;;;;;;15.45;4.28;;;;;;;16.80;79.09;98329.19;4995315;28;20072;-94
2021/10/29 04:01:38;;;;;;;12.50;4.47;;;;;;;16.69;79.65;98321.00;4994354;28;20026;-92
2021/10/29 04:04:04;;;;;;;15.07;4.55;;;;;;;16.64;80.06;98311.78;4994913;28;20022;-93
2021/10/29 04:06:29;;;;;;;11.27;4.53;;;;;;;16.69;79.25;98318.34;4980356;28;20484;-92
2021/10/29 04:08:55;;;;;;;16.52;4.53;;;;;;;16.96;78.41;98328.13;4991783;28;20543;-92
2021/10/29 04:11:23;;;;;;;19.17;4.50;;;;;;;16.96;77.95;98321.97;4993597;28;20042;-91
2021/10/29 04:13:49;;;;;;;14.27;4.40;;;;;;;17.36;76.35;98325.63;4994843;28;20036;-92
2021/10/29 04:16:15;;;;;;;14.57;4.20;;;;;;;17.42;75.95;98308.91;4992718;28;20038;-92
2021/10/29 04:18:41;;;;;;;14.68;4.47;;;;;;;17.25;76.84;98313.75;4994841;28;20435;-95
2021/10/29 04:21:07;;;;;;;14.25;4.60;;;;;;;16.88;78.03;98295.63;4994122;28;20030;-93
2021/10/29 04:23:32;;;;;;;17.80;4.68;;;;;;;17.17;77.41;98302.50;4994088;28;20061;-93
2021/10/29 04:25:58;;;;;;;12.32;4.85;;;;;;;17.17;77.29;98297.19;4993739;28;20080;-92
2021/10/29 04:28:24;;;;;;;17.08;5.30;;;;;;;17.34;76.31;98290.53;4994586;28;20301;-94
2021/10/29 04:30:52;;;;;;;14.90;4.90;;;;;;;17.27;76.79;98276.41;4991169;28;20211;-93
2021/10/29 04:33:18;;;;;;;15.55;5.13;;;;;;;17.52;75.58;98281.19;4994324;28;20089;-93
2021/10/29 04:35:45;;;;;;;18.52;5.72;;;;;;;17.02;77.79;98292.03;4978983;28;20023;-94
2021/10/29 04:38:12;;;;;;;17.00;4.78;;;;;;;17.36;76.71;98285.03;4989408;28;20038;-94
2021/10/29 04:40:39;;;;;;;15.65;4.85;;;;;;;17.57;75.52;98282.19;4980484;28;20030;-94
2021/10/29 04:43:06;;;;;;;23.25;5.43;;;;;;;17.53;75.62;98280.97;4974504;28;20054;-92
2021/10/29 04:45:32;;;;;;;24.80;7.00;;;;;;;17.00;77.66;98292.25;4987266;28;20038;-93
2021/10/29 04:47:58;;;;;;;19.23;5.90;;;;;;;17.42;76.04;98282.38;4993805;28;20030;-92
2021/10/29 04:50:24;;;;;;;17.02;6.45;;;;;;;17.25;76.36;98273.16;4982397;28;20027;-92
2021/10/29 04:52:49;;;;;;;16.58;5.65;;;;;;;17.40;76.02;98271.16;4983699;28;20023;-92
2021/10/29 04:55:15;;;;;;;24.55;6.22;;;;;;;17.53;75.00;98269.53;4983670;28;20035;-94
2021/10/29 04:57:40;;;;;;;23.05;5.38;;;;;;;17.47;75.87;98276.47;4993825;28;20045;-93
2021/10/29 05:00:07;;;;;;;31.20;6.22;;;;;;;17.79;73.71;98272.25;4991797;28;20058;-93
2021/10/29 05:02:33;;;;;;;23.95;5.57;;;;;;;17.73;74.56;98265.09;4993591;28;20026;-93
2021/10/29 05:05:00;;;;;;;22.02;6.13;;;;;;;17.64;75.04;98250.38;4976339;28;20038;-92
2021/10/29 05:07:25;;;;;;;17.13;5.43;;;;;;;17.53;75.32;98256.28;4984654;28;20121;-92
2021/10/29 05:09:51;;;;;;;29.52;6.15;;;;;;;17.31;75.57;98259.09;4977884;28;20169;-92
2021/10/29 05:12:16;;;;;;;21.55;5.00;;;;;;;17.53;75.33;98253.63;4974189;28;20520;-92
2021/10/29 05:14:41;;;;;;;18.27;4.85;;;;;;;17.39;75.14;98247.47;4987648;28;20038;-92
2021/10/29 05:17:06;;;;;;;21.17;5.00;;;;;;;17.72;74.12;98239.56;4993272;28;20026;-93
2021/10/29 05:19:32;;;;;;;18.10;4.80;;;;;;;17.31;75.52;98239.72;4992948;28;20061;-92
2021/10/29 05:21:57;;;;;;;19.05;4.63;;;;;;;17.56;74.83;98237.31;4992686;28;20057;-91
2021/10/29 05:24:23;;;;;;;20.40;4.78;;;;;;;17.39;75.30;98237.69;4980841;28;20469;-92
2021/10/29 05:26:48;;;;;;;15.15;4.25;;;;;;;17.41;75.42;98246.25;4973812;28;20027;-93
2021/10/29 05:29:14;;;;;;;17.30;4.32;;;;;;;17.45;75.25;98238.72;4973619;28;20026;-93
2021/10/29 05:31:39;;;;;;;17.83;4.00;;;;;;;17.60;74.71;98234.03;4973685;28;20027;-91
2021/10/29 05:34:05;;;;;;;19.63;5.05;;;;;;;17.67;74.58;98231.38;4974734;28;20022;-92
2021/10/29 05:36:31;;;;;;;14.80;4.15;;;;;;;17.49;74.93;98236.47;4982337;28;20030;-92
2021/10/29 05:38:56;;;;;;;16.27;4.03;;;;;;;17.76;73.97;98227.53;4985787;28;20039;-91
2021/10/29 05:41:22;;;;;;;22.17;4.60;;;;;;;17.99;73.51;98215.69;4972436;28;20065;-92
2021/10/29 05:43:47;;;;;;;23.15;4.63;;;;;;;17.89;73.71;98221.44;4987799;28;20022;-90
2021/10/29 05:46:12;;;;;;;19.85;4.75;;;;;;;17.94;73.42;98220.81;4992931;28;20036;-94
2021/10/29 05:48:38;;;;;;;17.27;4.75;;;;;;;17.78;73.66;98220.16;4992115;28;20388;-90
2021/10/29 05:51:10;;;;;;;23.48;4.00;;;;;;;17.84;73.52;98214.06;4994417;28;20030;-91
2021/10/29 05:56:15;;;;;;;20.42;4.47;;;;;;;17.56;73.84;98213.44;4993314;28;20033;-90
2021/10/29 05:58:40;;;;;;;12.40;3.10;;;;;;;17.55;73.68;98195.88;4992119;28;20030;-91
2021/10/29 06:01:06;;;;;;;22.00;4.10;;;;;;;18.07;72.04;98194.25;4992831;28;20125;-92
2021/10/29 06:03:31;;;;;;;17.23;3.63;;;;;;;17.98;72.06;98190.19;4990885;28;20057;-92
2021/10/29 06:05:56;;;;;;;18.45;3.55;;;;;;;18.24;71.08;98186.66;4992537;28;20502;-92
2021/10/29 06:08:22;;;;;;;19.52;4.68;;;;;;;18.12;71.51;98194.44;4982503;28;20109;-91
2021/10/29 06:10:48;;;;;;;10.50;3.65;;;;;;;17.93;72.38;98204.09;4973290;28;20019;-92
2021/10/29 06:13:14;;;;;;;26.10;4.00;;;;;;;17.90;72.49;98206.31;4974266;28;20034;-93
2021/10/29 06:15:43;;;;;;;13.73;3.42;;;;;;;17.86;73.04;98210.41;4973519;28;20105;-94
2021/10/29 06:18:09;;;;;;;11.35;3.00;;;;;;;18.15;72.25;98190.56;4981031;28;20027;-93
2021/10/29 06:20:34;;;;;;;16.05;2.72;;;;;;;18.15;71.63;98199.34;4992944;28;20039;-94
2021/10/29 06:23:03;;;;;;;18.50;3.55;;;;;;;18.20;71.41;98196.88;4997185;28;20029;-95
2021/10/29 06:25:30;;;;;;;11.32;2.58;;;;;;;18.14;71.50;98197.69;4992506;28;20495;-95
2021/10/29 06:28:23;;;;;;;13.70;2.63;;;;;;;17.89;71.94;98189.59;4981477;28;20058;-94
2021/10/29 06:30:44;;;;;;;12.38;2.72;;;;;;;17.73;72.46;98200.56;4976863;28;20038;-94
2021/10/29 06:33:11;;;;;;;21.45;2.75;;;;;;;17.60;72.49;98182.81;4993315;28;20037;-93
2021/10/29 06:35:38;;;;;;;22.73;3.45;;;;;;;18.05;70.99;98177.72;4996657;28;20022;-94
2021/10/29 06:38:04;;;;;;;17.02;2.65;;;;;;;17.88;70.66;98185.28;4993458;28;20101;-94
2021/10/29 06:40:31;;;;;;;11.07;2.35;;;;;;;17.44;72.52;98192.81;4996103;28;20109;-92
2021/10/29 06:43:01;;;;;;;14.88;2.70;;;;;;;17.73;70.93;98201.41;4981945;28;20393;-94
2021/10/29 06:48:03;;;;;;;15.38;2.47;;;;;;;17.57;71.14;98197.28;4977574;28;20027;-94
2021/10/29 07:01:44;;;;;;;11.40;2.15;;;;;;;17.71;70.30;98198.13;4984802;28;20037;-92
2021/10/29 07:42:06;;;;;;;16.98;1.85;;;;;;;17.43;70.90;98244.22;4985877;28;20093;-91
2021/10/29 07:44:32;;;;;;;11.70;1.65;;;;;;;17.30;70.64;98243.38;4974607;28;20366;-93
2021/10/29 07:46:57;;;;;;;16.90;2.28;;;;;;;17.19;70.43;98236.81;4980972;28;20035;-91
2021/10/29 07:49:28;;;;;;;12.98;2.50;;;;;;;17.51;69.95;98231.78;4976444;28;20484;-94
2021/10/29 07:51:54;;;;;;;15.15;2.00;;;;;;;17.76;69.15;98247.94;4990033;28;20105;-95
2021/10/29 07:54:21;;;;;;;14.18;2.42;;;;;;;17.93;69.19;98259.00;4992229;28;20469;-92
2021/10/29 07:56:46;;;;;;;17.08;1.88;;;;;;;18.11;68.64;98267.19;4997479;28;20603;-94
2021/10/29 07:59:11;;;;;;;11.95;2.75;;;;;;;18.19;68.00;98259.00;4991733;28;20113;-94
2021/10/29 08:01:37;;;;;;;21.55;2.28;;;;;;;18.55;66.44;98254.25;4992218;28;20487;-94
2021/10/29 08:04:03;;;;;;;9.90;1.65;;;;;;;18.95;66.43;98273.56;4990356;28;20034;-94
2021/10/29 08:06:28;;;;;;;13.30;1.83;;;;;;;18.66;65.85;98274.03;4991870;28;20032;-95
2021/10/29 08:08:54;;;;;;;16.92;1.98;;;;;;;18.73;66.46;98302.22;4992792;28;20054;-94
2021/10/29 08:11:20;;;;;;;9.07;1.60;;;;;;;18.21;66.72;98294.13;4997907;28;20034;-96
2021/10/29 08:13:45;;;;;;;8.07;1.52;;;;;;;18.19;66.69;98301.50;4995909;28;20476;-96
2021/10/29 08:16:11;;;;;;;11.80;1.67;;;;;;;17.48;68.87;98314.44;4994274;28;20476;-92
2021/10/29 08:18:43;;;;;;;12.80;1.42;;;;;;;18.02;67.84;98308.22;4997520;28;20121;-95
2021/10/29 08:21:11;;;;;;;7.30;1.33;;;;;;;17.76;68.98;98312.47;5002939;28;20034;-96
2021/10/29 08:23:37;;;;;;;5.35;0.93;;;;;;;17.58;69.68;98317.53;5026619;28;20022;-96
2021/10/29 08:26:02;;;;;;;8.00;1.20;;;;;;;17.55;69.54;98323.22;5017510;28;20057;-95
2021/10/29 08:28:28;;;;;;;9.50;1.60;;;;;;;17.85;68.90;98310.44;5022682;28;20021;-96
2021/10/29 08:30:53;;;;;;;7.18;1.38;;;;;;;17.67;69.47;98316.31;5001155;28;20272;-95
2021/10/29 08:33:19;;;;;;;8.55;1.05;;;;;;;17.57;69.93;98324.66;4993517;28;20385;-95
2021/10/29 08:35:45;;;;;;;5.90;0.70;;;;;;;17.59;69.91;98321.81;4994549;28;20117;-95
2021/10/29 08:38:10;;;;;;;7.60;1.38;;;;;;;17.55;69.93;98315.28;5003351;28;20051;-96
2021/10/29 08:40:36;;;;;;;9.88;1.55;;;;;;;17.41;70.12;98315.22;5003700;28;20117;-96
2021/10/29 08:43:02;;;;;;;6.43;1.05;;;;;;;17.45;69.71;98313.81;5020886;28;20295;-96
2021/10/29 08:45:28;;;;;;;8.23;0.98;;;;;;;17.42;70.33;98308.91;5170188;22;20038;-96
2021/10/29 08:47:56;;;;;;;8.43;1.10;;;;;;;17.55;70.41;98315.28;5020314;28;20029;-96
2021/10/29 08:50:22;;;;;;;6.18;1.10;;;;;;;17.56;70.24;98316.91;5018306;28;20034;-91
2021/10/29 08:52:49;;;;;;;7.63;1.10;;;;;;;17.38;71.05;98322.78;5011561;28;20033;-95
2021/10/29 08:55:17;;;;;;;5.30;0.75;;;;;;;17.17;71.50;98343.09;5018806;28;20513;-95
2021/10/29 08:57:47;;;;;;;9.38;1.33;;;;;;;17.30;70.92;98362.72;5005337;28;20045;-94
2021/10/29 09:00:19;;;;;;;9.35;1.45;;;;;;;16.83;72.75;98367.78;5006245;28;20029;-94
2021/10/29 09:02:50;;;;;;;4.63;0.88;;;;;;;17.31;70.97;98361.72;5020158;28;20037;-96
2021/10/29 09:05:24;;;;;;;4.28;1.08;;;;;;;17.27;71.20;98373.75;5252762;22;20049;-94
2021/10/29 09:08:12;;;;;;;5.63;0.40;;;;;;;17.61;69.51;98372.84;5016512;28;20464;-96
2021/10/29 09:33:00;;;;;;;2.78;0.30;;;;;;;17.59;67.84;98409.38;5032662;28;20038;-96
2021/10/29 09:35:28;;;;;;;1.10;0.20;;;;;;;17.70;67.19;98411.47;5032105;28;20062;-96
2021/10/29 09:38:09;;;;;;;0.50;0.13;;;;;;;17.52;67.33;98409.34;5010077;28;20135;-96
2021/10/29 09:40:54;;;;;;;1.73;0.10;;;;;;;18.58;66.97;98400.81;5016259;28;20033;-93
2021/10/29 09:43:21;;;;;;;2.38;0.25;;;;;;;18.98;65.20;98400.81;5015935;28;20041;-94
2021/10/29 09:45:57;;;;;;;1.77;0.20;;;;;;;19.33;63.66;98399.69;4996541;28;20118;-93
2021/10/29 09:48:30;;;;;;;3.72;0.30;;;;;;;19.97;63.90;98408.66;4993684;28;20034;-94
2021/10/29 09:50:57;;;;;;;1.70;0.30;;;;;;;20.16;62.73;98405.06;4998693;28;20017;-93
2021/10/29 09:53:59;;;;;;;2.28;0.10;;;;;;;20.49;60.16;98409.31;5012894;28;20061;-94
2021/10/29 09:58:45;;;;;;;0.38;0.03;;;;;;;21.69;59.63;98418.00;4996455;28;20041;-95
2021/10/29 10:01:11;;;;;;;1.33;0.10;;;;;;;21.83;57.93;98416.78;4998240;28;20030;-94
2021/10/29 10:03:41;;;;;;;2.08;0.30;;;;;;;22.05;56.26;98419.78;4995956;28;20479;-94
2021/10/29 10:06:08;;;;;;;1.98;0.17;;;;;;;22.67;55.30;98419.50;5006571;28;20118;-95
2021/10/29 10:08:34;;;;;;;2.67;0.30;;;;;;;21.57;55.04;98432.09;4997871;28;20050;-96
2021/10/29 10:11:02;;;;;;;0.35;0.10;;;;;;;21.50;54.53;98427.88;5005050;28;20499;-95
2021/10/29 10:13:29;;;;;;;0.55;0.20;;;;;;;21.00;55.92;98445.63;5004230;28;20334;-95
2021/10/29 10:15:58;;;;;;;1.20;0.10;;;;;;;21.11;56.20;98451.25;5013148;28;20058;-95
2021/10/29 10:18:24;;;;;;;0.50;0.08;;;;;;;20.79;57.72;98443.34;4996671;28;20053;-94
2021/10/29 10:20:54;;;;;;;2.72;0.25;;;;;;;20.69;55.41;98443.03;5007858;28;20109;-94
2021/10/29 10:23:32;;;;;;;1.92;0.40;;;;;;;19.98;57.95;98429.75;4997278;28;20403;-95
2021/10/29 10:45:51;;;;;;;3.20;0.40;;;;;;;23.42;49.48;98470.69;5003770;28;20038;-89
2021/10/29 10:48:26;;;;;;;1.95;0.25;;;;;;;23.64;51.43;98463.69;4993674;28;20427;-94
2021/10/29 10:50:55;;;;;;;1.50;0.15;;;;;;;24.22;51.65;98461.06;5007004;28;20093;-95
2021/10/29 10:53:27;;;;;;;0.88;0.20;;;;;;;24.22;49.64;98469.91;5000400;28;20104;-95
2021/10/29 11:12:06;;;;;;;0.20;0.10;;;;;;;21.95;53.58;98499.66;5154122;22;20109;-96
2021/10/29 11:22:06;;;;;;;1.75;0.40;;;;;;;19.88;56.73;98516.44;5029786;28;20054;-93
2021/10/29 11:24:36;;;;;;;3.30;0.43;;;;;;;19.94;58.43;98520.94;5022006;28;20037;-96
2021/10/29 11:27:15;;;;;;;0.90;0.20;;;;;;;19.45;57.66;98519.59;5053000;28;20017;-96
2021/10/29 11:29:51;;;;;;;1.38;0.25;;;;;;;19.77;58.87;98521.41;5049466;28;20467;-95
2021/10/29 11:32:21;;;;;;;0.93;0.10;;;;;;;19.65;59.46;98538.19;5027691;28;20489;-96
2021/10/29 11:34:49;;;;;;;2.30;0.47;;;;;;;18.22;63.29;98547.28;5024953;28;20383;-96
2021/10/29 11:37:15;;;;;;;2.20;0.20;;;;;;;18.39;63.15;98553.91;5032969;28;20086;-96
2021/10/29 11:39:40;;;;;;;0.63;0.10;;;;;;;18.64;62.37;98553.31;5247305;22;20049;-95
2021/10/29 11:42:07;;;;;;;1.20;0.17;;;;;;;17.82;64.45;98576.28;5050775;28;20025;-94
2021/10/29 11:44:37;;;;;;;4.25;0.75;;;;;;;17.29;67.19;98576.75;5040580;28;20082;-93
2021/10/29 11:47:05;;;;;;;0.77;0.22;;;;;;;17.54;65.86;98589.59;5042900;28;20029;-94
2021/10/29 11:49:31;;;;;;;2.38;0.30;;;;;;;17.64;66.36;98590.06;5045341;28;20482;-95
2021/10/29 11:51:59;;;;;;;1.05;0.30;;;;;;;17.36;66.52;98590.91;5049264;28;20027;-94
2021/10/29 11:54:38;;;;;;;3.25;0.60;;;;;;;17.62;66.97;98597.41;5026226;28;20022;-95
2021/10/29 12:05:59;;;;;;;3.50;0.47;;;;;;;17.42;67.39;98603.41;4952789;29;20149;-93
2021/10/29 12:08:26;;;;;;;2.70;0.40;;;;;;;17.52;66.74;98618.16;5019587;28;20614;-95
2021/10/29 12:11:04;;;;;;;4.72;0.50;;;;;;;17.66;65.27;98625.19;5045072;28;20085;-94
2021/10/29 12:21:21;;;;;;;6.45;0.90;;;;;;;16.98;66.14;98624.81;5838724;22;20049;-96
2021/10/29 12:23:50;;;;;;;8.45;1.02;;;;;;;17.25;67.08;98624.06;5044325;28;20426;-96
2021/10/29 12:26:18;;;;;;;5.47;1.20;;;;;;;17.84;65.66;98630.84;5049064;28;20033;-96
2021/10/29 12:28:47;;;;;;;5.20;0.77;;;;;;;18.04;64.26;98638.13;5053600;28;20028;-96
2021/10/29 12:31:23;;;;;;;4.55;1.10;;;;;;;18.26;64.20;98627.41;5052234;28;20026;-96
2021/10/29 12:37:07;;;;;;;12.35;1.08;;;;;;;18.60;62.47;98645.97;5041832;28;20521;-96
2021/10/29 13:04:04;;;;;;;13.18;1.65;;;;;;;19.19;58.87;98654.28;5025648;28;20134;-95
2021/10/29 13:06:30;;;;;;;7.18;1.27;;;;;;;19.57;58.55;98653.72;5019760;28;20054;-96
2021/10/29 13:08:56;;;;;;;9.80;1.15;;;;;;;20.19;58.65;98660.41;5020163;28;20352;-95
2021/10/29 13:11:24;;;;;;;8.57;1.65;;;;;;;19.86;58.25;98657.00;5021042;28;20375;-96
2021/10/29 13:14:07;;;;;;;10.55;1.20;;;;;;;19.57;58.63;98678.50;5033347;28;20090;-96
2021/10/29 13:16:34;;;;;;;9.60;1.15;;;;;;;19.63;58.77;98676.84;5026036;28;20479;-96
2021/10/29 13:19:28;;;;;;;11.45;1.85;;;;;;;19.85;58.37;98679.34;5047112;28;20036;-95
2021/10/29 13:25:06;;;;;;;9.75;1.65;;;;;;;19.59;58.57;98675.63;5392325;22;20045;-96
2021/10/29 13:54:34;;;;;;;13.38;2.55;;;;;;;19.16;56.61;98702.59;5283236;22;20048;-96
2021/10/29 13:57:57;;;;;;;13.45;1.67;;;;;;;18.70;55.80;98689.94;5061325;28;20032;-96
2021/10/29 14:29:50;;;;;;;19.80;2.65;;;;;;;18.64;56.16;98707.50;5034197;28;20116;-96
2021/10/29 14:32:21;;;;;;;17.52;1.90;;;;;;;18.37;55.51;98714.53;5032140;28;20026;-96
2021/10/29 14:34:51;;;;;;;8.60;1.48;;;;;;;18.42;54.29;98707.63;5030614;28;20017;-96
2021/10/29 14:42:17;;;;;;;7.60;1.45;;;;;;;18.68;56.03;98715.91;5034241;28;20032;-96
2021/10/29 14:44:51;;;;;;;14.57;1.80;;;;;;;18.65;55.48;98719.78;5063378;23;20173;-95
2021/10/29 14:47:32;;;;;;;15.95;1.55;;;;;;;18.41;56.52;98723.75;5516570;22;20038;-96
2021/10/29 15:03:06;;;;;;;15.90;1.75;;;;;;;18.10;57.02;98727.66;5186923;23;20046;-96
2021/10/29 15:16:46;;;;;;;9.25;1.23;;;;;;;17.83;57.28;98730.13;5026485;28;20057;-96
2021/10/29 15:45:35;;;;;;;8.88;1.20;;;;;;;17.79;56.02;98763.34;5011545;28;20038;-96
2021/10/29 15:48:07;;;;;;;4.38;0.80;;;;;;;17.73;56.51;98753.50;5207019;22;20050;-96
2021/10/29 15:53:11;;;;;;;4.20;0.88;;;;;;;17.61;55.75;98752.34;5520640;23;20064;-96
2021/10/29 16:01:01;;;;;;;4.70;1.10;;;;;;;17.62;55.29;98761.94;5000825;28;20476;-94
2021/10/29 16:03:47;;;;;;;6.57;0.93;;;;;;;17.62;56.60;98767.25;5006162;28;20039;-96
2021/10/29 16:19:42;;;;;;;3.83;1.00;;;;;;;17.27;57.44;98768.94;5209407;23;20082;-96
2021/10/29 16:25:22;;;;;;;10.88;1.50;;;;;;;17.09;57.56;98779.97;5030741;28;20018;-96
2021/10/29 16:30:14;;;;;;;8.98;1.83;;;;;;;16.99;58.38;98781.06;5092745;23;20686;-95
2021/10/29 16:32:52;;;;;;;8.65;1.40;;;;;;;16.89;58.39;98785.03;4996954;28;20058;-93
2021/10/29 16:35:17;;;;;;;6.95;1.40;;;;;;;17.12;58.43;98792.84;4994416;28;20066;-94
2021/10/29 16:37:44;;;;;;;11.65;1.52;;;;;;;17.08;58.94;98788.91;4994676;28;20030;-95
2021/10/29 16:40:11;;;;;;;6.32;1.40;;;;;;;16.99;58.64;98794.31;4991030;28;20109;-92
2021/10/29 16:42:37;;;;;;;8.85;1.63;;;;;;;16.92;58.63;98796.06;5001692;28;20029;-96
2021/10/29 16:50:14;;;;;;;6.35;1.33;;;;;;;16.74;58.96;98801.72;5562890;23;20022;-95
2021/10/29 16:52:41;;;;;;;7.35;1.40;;;;;;;16.61;59.07;98793.59;6022724;23;20118;-95
2021/10/29 16:57:42;;;;;;;7.80;1.25;;;;;;;16.43;59.82;98794.78;5094132;23;20046;-96
2021/10/29 17:10:24;;;;;;;8.00;1.67;;;;;;;16.17;60.67;98799.66;4986868;28;20094;-96
2021/10/29 17:12:49;;;;;;;7.32;1.60;;;;;;;16.01;61.19;98817.31;4993250;28;20026;-95
2021/10/29 17:15:16;;;;;;;12.50;1.88;;;;;;;16.07;61.35;98813.13;4997078;28;20063;-95
2021/10/29 17:17:43;;;;;;;12.80;1.48;;;;;;;16.06;61.65;98811.50;4994043;28;20034;-95
2021/10/29 17:20:12;;;;;;;8.70;2.08;;;;;;;16.09;61.10;98823.56;4991787;28;20006;-95
2021/10/29 17:22:41;;;;;;;12.70;1.83;;;;;;;16.07;61.86;98823.72;4988597;28;20035;-96
2021/10/29 17:25:09;;;;;;;15.30;2.65;;;;;;;16.07;61.86;98815.78;4990462;28;20035;-96
2021/10/29 17:27:34;;;;;;;13.52;1.70;;;;;;;16.07;61.79;98810.50;5005702;28;20026;-95
2021/10/29 17:30:00;;;;;;;14.98;2.58;;;;;;;16.04;61.89;98813.50;5001694;28;20061;-96
2021/10/29 17:32:25;;;;;;;14.80;2.97;;;;;;;15.99;61.26;98813.22;4993674;28;20543;-95
2021/10/29 17:37:31;;;;;;;10.77;2.20;;;;;;;15.84;62.79;98821.13;5044524;23;20073;-95
2021/10/29 17:39:58;;;;;;;20.40;2.38;;;;;;;15.99;62.15;98813.22;5013992;28;20026;-94
2021/10/29 17:42:23;;;;;;;10.65;2.00;;;;;;;15.98;62.03;98816.88;5016432;28;20105;-94
2021/10/29 17:44:48;;;;;;;14.43;1.90;;;;;;;15.98;62.52;98816.88;5020355;28;20035;-95
2021/10/29 17:47:14;;;;;;;10.38;2.17;;;;;;;15.85;62.39;98817.44;5016755;28;20077;-92
2021/10/29 17:49:39;;;;;;;16.00;2.78;;;;;;;16.06;61.99;98822.09;5010366;28;20380;-95
2021/10/29 17:52:06;;;;;;;17.58;2.08;;;;;;;15.79;62.59;98818.97;5015276;28;20018;-95
2021/10/29 17:54:38;;;;;;;18.05;2.97;;;;;;;15.64;63.25;98816.25;5015048;28;20475;-95
2021/10/29 17:57:07;;;;;;;14.38;2.90;;;;;;;15.79;62.82;98818.16;5012926;28;20035;-96
2021/10/29 17:59:35;;;;;;;19.30;2.25;;;;;;;15.84;62.85;98821.13;4998088;28;20026;-96
2021/10/29 18:02:02;;;;;;;20.85;2.53;;;;;;;15.76;62.80;98824.66;5004002;28;20038;-94
2021/10/29 18:04:28;;;;;;;15.60;2.25;;;;;;;15.85;62.84;98820.09;5012559;28;20030;-96
2021/10/29 18:06:53;;;;;;;9.98;2.22;;;;;;;15.73;62.91;98819.69;5015236;28;20026;-96
2021/10/29 18:09:18;;;;;;;14.18;2.53;;;;;;;15.64;63.00;98824.19;5012396;28;20030;-95
2021/10/29 18:11:44;;;;;;;15.95;2.63;;;;;;;15.58;62.91;98816.13;5017108;28;20021;-96
2021/10/29 18:14:11;;;;;;;12.30;2.38;;;;;;;15.29;62.45;98824.75;5017539;28;20472;-96
2021/10/29 18:16:47;;;;;;;13.25;2.60;;;;;;;15.55;62.86;98827.88;5026233;28;20045;-96
2021/10/29 18:19:16;;;;;;;14.52;2.63;;;;;;;15.63;62.78;98834.94;5020199;28;20060;-95
2021/10/29 18:21:43;;;;;;;10.38;2.10;;;;;;;15.52;62.79;98832.69;5015621;28;20050;-96
2021/10/29 18:24:12;;;;;;;10.32;2.42;;;;;;;15.65;62.23;98831.13;5023278;28;20093;-96
2021/10/29 18:26:43;;;;;;;21.67;3.13;;;;;;;15.71;61.67;98826.13;5020708;28;20037;-96
2021/10/29 18:29:10;;;;;;;12.32;2.03;;;;;;;15.77;62.54;98828.09;5004636;28;20041;-96
2021/10/29 18:31:35;;;;;;;17.77;2.53;;;;;;;15.71;62.72;98828.78;5008174;28;20037;-93
2021/10/29 18:34:02;;;;;;;14.45;2.85;;;;;;;15.81;62.53;98832.84;5019514;28;20387;-96
2021/10/29 18:36:28;;;;;;;11.82;2.53;;;;;;;15.85;62.53;98843.91;5020929;28;20022;-94
2021/10/29 18:38:53;;;;;;;12.30;1.92;;;;;;;15.74;62.59;98839.88;5026149;28;20078;-96
2021/10/29 18:41:19;;;;;;;13.45;2.70;;;;;;;15.58;62.82;98842.56;5022922;28;20026;-95
2021/10/29 18:43:45;;;;;;;13.77;2.88;;;;;;;15.51;63.42;98846.94;5003974;28;20034;-96
2021/10/29 18:46:12;;;;;;;15.85;2.90;;;;;;;15.46;63.53;98835.06;4999668;28;20019;-92
2021/10/29 18:48:38;;;;;;;12.82;2.20;;;;;;;15.60;63.02;98843.22;5015661;28;20039;-94
2021/10/29 18:51:04;;;;;;;15.23;2.70;;;;;;;15.51;63.64;98842.44;5014835;28;20105;-95
2021/10/29 18:53:30;;;;;;;14.68;2.50;;;;;;;15.47;63.83;98844.63;5013568;28;20137;-94
2021/10/29 18:55:56;;;;;;;12.93;2.83;;;;;;;15.36;63.73;98838.91;5015509;28;20033;-94
2021/10/29 18:58:22;;;;;;;17.92;2.92;;;;;;;15.58;63.37;98845.22;5018269;28;20039;-95
2021/10/29 19:00:48;;;;;;;19.75;3.78;;;;;;;15.42;63.58;98844.34;5029584;28;20014;-96
2021/10/29 19:13:34;;;;;;;16.33;4.07;;;;;;;15.63;63.33;98840.25;4996485;28;20053;-92
2021/10/29 19:16:00;;;;;;;17.67;3.63;;;;;;;15.43;63.10;98835.38;4995972;28;20396;-94
2021/10/29 19:18:25;;;;;;;12.88;3.08;;;;;;;15.46;63.63;98827.13;4994993;28;20030;-91
2021/10/29 19:20:51;;;;;;;15.07;4.35;;;;;;;15.48;63.38;98832.22;4994807;28;20022;-91
2021/10/29 19:23:16;;;;;;;13.30;4.40;;;;;;;15.34;63.64;98819.75;4992964;28;20457;-96
2021/10/29 19:25:42;;;;;;;17.27;5.22;;;;;;;15.27;64.28;98831.00;5002612;28;20496;-96
2021/10/29 19:28:07;;;;;;;19.23;5.13;;;;;;;15.22;64.69;98819.31;5006337;28;20066;-96
2021/10/29 19:30:32;;;;;;;18.02;5.15;;;;;;;15.10;64.47;98824.16;5009492;28;20034;-96
2021/10/29 19:32:58;;;;;;;16.77;4.47;;;;;;;15.10;64.46;98818.03;4990357;28;20045;-90
2021/10/29 19:35:26;;;;;;;17.17;3.97;;;;;;;15.11;64.50;98817.88;4990930;28;20487;-90
2021/10/29 19:37:56;;;;;;;13.70;3.92;;;;;;;15.09;63.73;98811.94;4994424;28;20036;-91
2021/10/29 19:40:45;;;;;;;17.65;3.80;;;;;;;15.08;64.12;98799.69;4994459;28;20010;-93
2021/10/29 19:43:11;;;;;;;14.43;3.30;;;;;;;15.04;64.50;98801.06;4987213;28;20027;-94
2021/10/29 19:45:36;;;;;;;11.48;2.65;;;;;;;15.04;64.34;98795.75;4989645;28;20026;-94
2021/10/29 19:48:02;;;;;;;12.32;2.10;;;;;;;14.99;65.05;98792.81;4993895;28;20019;-93
2021/10/29 19:50:27;;;;;;;10.43;3.25;;;;;;;14.91;65.29;98796.31;4993834;28;20033;-94